createdAt,value
2017-01-12T00:01:03.249Z,0
2017-01-12T00:02:13.968Z,0
2017-01-12T00:03:24.716Z,0
2017-01-12T00:04:35.460Z,0
2017-01-12T00:05:46.203Z,0
2017-01-12T00:06:56.924Z,0
2017-01-12T00:08:07.647Z,0
2017-01-12T00:09:18.390Z,0
2017-01-12T00:10:29.107Z,0
2017-01-12T00:11:40.236Z,0
2017-01-12T00:12:51.002Z,0
2017-01-12T00:14:01.728Z,0
2017-01-12T00:15:12.419Z,0
2017-01-12T00:16:23.115Z,0
2017-01-12T00:17:33.838Z,0
2017-01-12T00:18:44.565Z,0
2017-01-12T00:19:55.278Z,0
2017-01-12T00:21:06.000Z,0
2017-01-12T00:22:16.699Z,0
2017-01-12T00:23:27.398Z,0
2017-01-12T00:24:38.113Z,0
2017-01-12T00:25:48.823Z,0
2017-01-12T00:26:59.552Z,0
2017-01-12T00:28:10.251Z,0
2017-01-12T00:29:20.943Z,0
2017-01-12T00:30:31.644Z,0
2017-01-12T00:31:42.370Z,0
2017-01-12T00:32:53.108Z,0
2017-01-12T00:34:03.826Z,0
2017-01-12T00:35:14.543Z,0
2017-01-12T00:36:25.272Z,0
2017-01-12T00:37:35.989Z,0
2017-01-12T00:38:46.688Z,0
2017-01-12T00:39:57.406Z,0
2017-01-12T00:41:08.127Z,0
2017-01-12T00:42:18.843Z,0
2017-01-12T00:43:29.574Z,0
2017-01-12T00:44:40.294Z,0
2017-01-12T00:45:51.013Z,0
2017-01-12T00:47:01.731Z,0
2017-01-12T00:48:12.444Z,0
2017-01-12T00:49:23.175Z,0
2017-01-12T00:50:33.889Z,0
2017-01-12T00:51:44.618Z,0
2017-01-12T00:52:55.364Z,0
2017-01-12T00:54:06.112Z,0
2017-01-12T00:55:16.836Z,0
2017-01-12T00:56:27.576Z,0
2017-01-12T00:57:38.287Z,0
2017-01-12T00:58:48.990Z,0
2017-01-12T01:00:00.093Z,0
2017-01-12T01:01:10.807Z,0
2017-01-12T01:02:21.529Z,0
2017-01-12T01:03:32.277Z,0
2017-01-12T01:04:43.012Z,0
2017-01-12T01:05:53.741Z,0
2017-01-12T01:07:04.453Z,0
2017-01-12T01:08:15.182Z,0
2017-01-12T01:09:25.925Z,0
2017-01-12T01:10:37.053Z,0
2017-01-12T01:11:47.771Z,0
2017-01-12T01:12:58.492Z,0
2017-01-12T01:14:09.192Z,0
2017-01-12T01:15:19.914Z,0
2017-01-12T01:16:30.650Z,0
2017-01-12T01:17:41.376Z,0
2017-01-12T01:18:52.096Z,0
2017-01-12T01:20:02.847Z,0
2017-01-12T01:21:13.564Z,0
2017-01-12T01:22:24.303Z,0
2017-01-12T01:23:35.010Z,0
2017-01-12T01:24:45.744Z,0
2017-01-12T01:25:56.476Z,0
2017-01-12T01:27:07.198Z,0
2017-01-12T01:28:17.939Z,0
2017-01-12T01:29:28.663Z,0
2017-01-12T01:30:39.384Z,0
2017-01-12T01:31:50.134Z,0
2017-01-12T01:33:00.853Z,0
2017-01-12T01:34:11.572Z,0
2017-01-12T01:35:22.319Z,0
2017-01-12T01:36:33.054Z,0
2017-01-12T01:37:43.757Z,0
2017-01-12T01:38:54.453Z,0
2017-01-12T01:40:05.178Z,0
2017-01-12T01:41:15.916Z,0
2017-01-12T01:42:26.660Z,0
2017-01-12T01:43:37.391Z,0
2017-01-12T01:44:48.180Z,0
2017-01-12T01:45:58.926Z,0
2017-01-12T01:47:09.672Z,0
2017-01-12T01:48:20.418Z,0
2017-01-12T01:49:31.151Z,0
2017-01-12T01:50:41.868Z,0
2017-01-12T01:51:52.596Z,0
2017-01-12T01:53:03.336Z,0
2017-01-12T01:54:14.077Z,0
2017-01-12T01:55:24.819Z,0
2017-01-12T01:56:35.545Z,0
2017-01-12T01:57:46.291Z,0
2017-01-12T01:58:56.990Z,0
2017-01-12T02:00:07.706Z,0
2017-01-12T02:01:18.439Z,0
2017-01-12T02:02:29.154Z,0
2017-01-12T02:03:39.872Z,0
2017-01-12T02:04:50.594Z,0
2017-01-12T02:06:01.310Z,0
2017-01-12T02:07:12.040Z,0
2017-01-12T02:08:22.786Z,0
2017-01-12T02:09:33.528Z,0
2017-01-12T02:10:44.253Z,0
2017-01-12T02:11:54.973Z,0
2017-01-12T02:13:05.691Z,0
2017-01-12T02:14:16.408Z,0
2017-01-12T02:15:27.511Z,0
2017-01-12T02:16:38.229Z,0
2017-01-12T02:17:48.950Z,0
2017-01-12T02:18:59.692Z,0
2017-01-12T02:20:10.420Z,0
2017-01-12T02:21:21.143Z,0
2017-01-12T02:22:31.889Z,0
2017-01-12T02:23:42.606Z,0
2017-01-12T02:24:53.331Z,0
2017-01-12T02:26:04.076Z,0
2017-01-12T02:27:14.794Z,0
2017-01-12T02:28:25.495Z,0
2017-01-12T02:29:36.239Z,0
2017-01-12T02:30:46.976Z,0
2017-01-12T02:31:57.707Z,0
2017-01-12T02:33:08.477Z,0
2017-01-12T02:34:19.200Z,0
2017-01-12T02:35:29.937Z,0
2017-01-12T02:36:40.683Z,0
2017-01-12T02:37:51.409Z,0
2017-01-12T02:39:02.134Z,0
2017-01-12T02:40:12.856Z,0
2017-01-12T02:41:23.572Z,0
2017-01-12T02:42:34.293Z,0
2017-01-12T02:43:45.032Z,0
2017-01-12T02:44:55.783Z,0
2017-01-12T02:46:06.531Z,0
2017-01-12T02:47:17.258Z,0
2017-01-12T02:48:27.978Z,0
2017-01-12T02:49:38.722Z,0
2017-01-12T02:50:49.433Z,0
2017-01-12T02:52:00.140Z,0
2017-01-12T02:53:10.879Z,0
2017-01-12T02:54:21.608Z,0
2017-01-12T02:55:32.325Z,0
2017-01-12T02:56:43.424Z,0
2017-01-12T02:57:54.121Z,0
2017-01-12T02:59:04.844Z,0
2017-01-12T03:00:15.961Z,0
2017-01-12T03:01:26.684Z,0
2017-01-12T03:02:37.429Z,0
2017-01-12T03:03:48.172Z,0
2017-01-12T03:04:58.893Z,0
2017-01-12T03:06:09.598Z,0
2017-01-12T03:07:20.352Z,0
2017-01-12T03:08:31.090Z,0
2017-01-12T03:09:41.807Z,0
2017-01-12T03:10:52.553Z,0
2017-01-12T03:12:03.297Z,0
2017-01-12T03:13:14.018Z,0
2017-01-12T03:14:24.766Z,0
2017-01-12T03:15:35.486Z,0
2017-01-12T03:16:46.221Z,0
2017-01-12T03:17:56.949Z,0
2017-01-12T03:19:07.649Z,0
2017-01-12T03:20:18.369Z,0
2017-01-12T03:21:29.112Z,0
2017-01-12T03:22:39.840Z,0
2017-01-12T03:23:50.601Z,0
2017-01-12T03:25:01.360Z,0
2017-01-12T03:26:12.104Z,0
2017-01-12T03:27:22.843Z,0
2017-01-12T03:28:33.567Z,0
2017-01-12T03:29:44.287Z,0
2017-01-12T03:30:55.051Z,0
2017-01-12T03:32:05.777Z,0
2017-01-12T03:33:16.529Z,0
2017-01-12T03:34:27.275Z,0
2017-01-12T03:35:38.018Z,0
2017-01-12T03:36:48.782Z,0
2017-01-12T03:37:59.507Z,0
2017-01-12T03:39:10.228Z,0
2017-01-12T03:40:20.957Z,0
2017-01-12T03:41:31.716Z,0
2017-01-12T03:42:42.421Z,0
2017-01-12T03:43:53.165Z,0
2017-01-12T03:45:03.912Z,0
2017-01-12T03:46:14.634Z,0
2017-01-12T03:47:25.354Z,0
2017-01-12T03:48:36.121Z,0
2017-01-12T03:49:46.821Z,0
2017-01-12T03:50:57.541Z,0
2017-01-12T03:52:08.288Z,0
2017-01-12T03:53:19.010Z,0
2017-01-12T03:54:29.751Z,0
2017-01-12T03:55:40.447Z,0
2017-01-12T03:56:51.169Z,0
2017-01-12T03:58:01.893Z,0
2017-01-12T03:59:12.665Z,0
2017-01-12T04:00:23.424Z,0
2017-01-12T04:01:34.136Z,0
2017-01-12T04:02:44.891Z,0
2017-01-12T04:03:55.620Z,0
2017-01-12T04:05:06.341Z,0
2017-01-12T04:06:17.083Z,0
2017-01-12T04:07:27.836Z,0
2017-01-12T04:08:38.560Z,0
2017-01-12T04:09:49.304Z,0
2017-01-12T04:11:00.046Z,0
2017-01-12T04:12:10.770Z,0
2017-01-12T04:13:21.468Z,0
2017-01-12T04:14:32.205Z,0
2017-01-12T04:15:42.931Z,0
2017-01-12T04:16:53.652Z,0
2017-01-12T04:18:04.351Z,0
2017-01-12T04:19:15.087Z,0
2017-01-12T04:20:25.792Z,0
2017-01-12T04:21:36.511Z,0
2017-01-12T04:22:47.235Z,0
2017-01-12T04:23:57.958Z,0
2017-01-12T04:25:08.700Z,0
2017-01-12T04:26:19.430Z,0
2017-01-12T04:27:30.142Z,0
2017-01-12T04:28:40.845Z,0
2017-01-12T04:29:51.587Z,0
2017-01-12T04:31:02.330Z,0
2017-01-12T04:32:13.051Z,0
2017-01-12T04:33:23.752Z,0
2017-01-12T04:34:34.468Z,0
2017-01-12T04:35:45.189Z,0
2017-01-12T04:36:55.913Z,0
2017-01-12T04:38:06.609Z,0
2017-01-12T04:39:17.304Z,0
2017-01-12T04:40:28.423Z,0
2017-01-12T04:41:39.161Z,0
2017-01-12T04:42:49.907Z,0
2017-01-12T04:44:00.657Z,0
2017-01-12T04:45:11.374Z,0
2017-01-12T04:46:22.106Z,0
2017-01-12T04:47:32.852Z,0
2017-01-12T04:48:43.572Z,0
2017-01-12T04:49:54.299Z,0
2017-01-12T04:51:05.017Z,0
2017-01-12T04:52:15.732Z,0
2017-01-12T04:53:26.453Z,0
2017-01-12T04:54:37.183Z,0
2017-01-12T04:55:47.922Z,0
2017-01-12T04:56:58.641Z,0
2017-01-12T04:58:09.365Z,0
2017-01-12T04:59:20.092Z,0
2017-01-12T05:00:30.829Z,0
2017-01-12T05:01:41.553Z,0
2017-01-12T05:02:52.296Z,0
2017-01-12T05:04:03.021Z,0
2017-01-12T05:05:13.742Z,0
2017-01-12T05:06:24.465Z,0
2017-01-12T05:07:35.212Z,0
2017-01-12T05:08:45.954Z,0
2017-01-12T05:09:56.697Z,0
2017-01-12T05:11:07.421Z,0
2017-01-12T05:12:18.142Z,0
2017-01-12T05:13:28.864Z,0
2017-01-12T05:14:39.581Z,0
2017-01-12T05:15:50.282Z,0
2017-01-12T05:17:01.027Z,0
2017-01-12T05:18:11.744Z,0
2017-01-12T05:19:22.459Z,0
2017-01-12T05:20:33.187Z,0
2017-01-12T05:21:43.882Z,0
2017-01-12T05:22:54.605Z,0
2017-01-12T05:24:05.326Z,0
2017-01-12T05:25:16.070Z,0
2017-01-12T05:26:26.794Z,0
2017-01-12T05:27:37.512Z,0
2017-01-12T05:28:48.213Z,0
2017-01-12T05:29:58.946Z,0
2017-01-12T05:31:09.678Z,0
2017-01-12T05:32:20.414Z,0
2017-01-12T05:33:31.146Z,0
2017-01-12T05:34:41.868Z,0
2017-01-12T05:35:52.586Z,0
2017-01-12T05:37:03.308Z,0
2017-01-12T05:38:14.026Z,0
2017-01-12T05:39:24.743Z,0
2017-01-12T05:40:35.444Z,0
2017-01-12T05:41:46.164Z,0
2017-01-12T05:42:56.860Z,0
2017-01-12T05:44:07.609Z,0
2017-01-12T05:45:18.302Z,0
2017-01-12T05:46:29.027Z,0
2017-01-12T05:47:39.762Z,0
2017-01-12T05:48:50.521Z,0
2017-01-12T05:50:01.261Z,0
2017-01-12T05:51:11.986Z,0
2017-01-12T05:52:22.731Z,0
2017-01-12T05:53:33.477Z,0
2017-01-12T05:54:44.220Z,0
2017-01-12T05:55:54.943Z,0
2017-01-12T05:57:05.644Z,0
2017-01-12T05:58:16.403Z,0
2017-01-12T05:59:27.132Z,0
2017-01-12T06:00:37.852Z,0
2017-01-12T06:01:48.595Z,0
2017-01-12T06:02:59.316Z,0
2017-01-12T06:04:10.041Z,0
2017-01-12T06:05:20.790Z,0
2017-01-12T06:06:31.506Z,0
2017-01-12T06:07:42.226Z,0
2017-01-12T06:08:52.926Z,0
2017-01-12T06:10:04.035Z,0
2017-01-12T06:11:14.767Z,0
2017-01-12T06:12:25.513Z,0
2017-01-12T06:13:36.230Z,0
2017-01-12T06:14:46.978Z,0
2017-01-12T06:15:57.722Z,0
2017-01-12T06:17:08.448Z,0
2017-01-12T06:18:19.169Z,0
2017-01-12T06:19:29.914Z,0
2017-01-12T06:20:40.656Z,0
2017-01-12T06:21:51.369Z,0
2017-01-12T06:23:02.073Z,0
2017-01-12T06:24:12.794Z,0
2017-01-12T06:25:23.533Z,0
2017-01-12T06:26:34.269Z,0
2017-01-12T06:27:44.989Z,0
2017-01-12T06:28:55.757Z,0
2017-01-12T06:30:06.508Z,0
2017-01-12T06:31:17.226Z,0
2017-01-12T06:32:27.950Z,4
2017-01-12T06:33:38.687Z,4
2017-01-12T06:34:49.414Z,0
2017-01-12T06:36:00.150Z,4
2017-01-12T06:37:10.881Z,4
2017-01-12T06:38:21.621Z,8
2017-01-12T06:39:32.346Z,8
2017-01-12T06:40:43.088Z,8
2017-01-12T06:41:53.784Z,8
2017-01-12T06:43:04.529Z,8
2017-01-12T06:44:15.242Z,12
2017-01-12T06:45:25.953Z,12
2017-01-12T06:46:36.694Z,20
2017-01-12T06:47:47.416Z,20
2017-01-12T06:48:58.161Z,24
2017-01-12T06:50:08.908Z,28
2017-01-12T06:51:19.650Z,40
2017-01-12T06:52:30.371Z,40
2017-01-12T06:53:41.091Z,48
2017-01-12T06:54:51.793Z,60
2017-01-12T06:56:02.533Z,64
2017-01-12T06:57:13.638Z,72
2017-01-12T06:58:24.375Z,84
2017-01-12T06:59:35.074Z,92
2017-01-12T07:00:45.791Z,112
2017-01-12T07:01:56.515Z,128
2017-01-12T07:03:07.258Z,136
2017-01-12T07:04:17.961Z,148
2017-01-12T07:05:28.703Z,156
2017-01-12T07:06:39.447Z,176
2017-01-12T07:07:50.566Z,176
2017-01-12T07:09:01.296Z,204
2017-01-12T07:10:12.033Z,232
2017-01-12T07:11:22.746Z,248
2017-01-12T07:12:33.478Z,264
2017-01-12T07:13:44.202Z,280
2017-01-12T07:14:55.321Z,336
2017-01-12T07:16:06.055Z,372
2017-01-12T07:17:16.787Z,440
2017-01-12T07:18:27.534Z,436
2017-01-12T07:19:38.251Z,372
2017-01-12T07:20:48.976Z,352
2017-01-12T07:21:59.696Z,396
2017-01-12T07:23:10.435Z,412
2017-01-12T07:24:21.189Z,440
2017-01-12T07:25:31.906Z,432
2017-01-12T07:26:42.632Z,464
2017-01-12T07:27:53.348Z,512
2017-01-12T07:29:04.069Z,528
2017-01-12T07:30:14.792Z,548
2017-01-12T07:31:25.511Z,564
2017-01-12T07:32:36.207Z,520
2017-01-12T07:33:46.954Z,544
2017-01-12T07:34:57.649Z,552
2017-01-12T07:36:08.345Z,640
2017-01-12T07:37:19.066Z,680
2017-01-12T07:38:29.792Z,672
2017-01-12T07:39:40.509Z,728
2017-01-12T07:40:51.233Z,808
2017-01-12T07:42:01.977Z,828
2017-01-12T07:43:12.700Z,984
2017-01-12T07:44:23.426Z,1080
2017-01-12T07:45:34.192Z,940
2017-01-12T07:46:44.910Z,1024
2017-01-12T07:47:55.658Z,1072
2017-01-12T07:49:06.380Z,1120
2017-01-12T07:50:17.156Z,1320
2017-01-12T07:51:27.874Z,1348
2017-01-12T07:52:38.621Z,1612
2017-01-12T07:53:49.315Z,1476
2017-01-12T07:55:00.049Z,1360
2017-01-12T07:56:10.771Z,1748
2017-01-12T07:57:21.503Z,1712
2017-01-12T07:58:32.264Z,1920
2017-01-12T07:59:42.992Z,2260
2017-01-12T08:00:53.731Z,1992
2017-01-12T08:02:04.484Z,2136
2017-01-12T08:03:15.209Z,2180
2017-01-12T08:04:25.937Z,2396
2017-01-12T08:05:36.677Z,2592
2017-01-12T08:06:47.398Z,3196
2017-01-12T08:07:58.122Z,3480
2017-01-12T08:09:08.845Z,3260
2017-01-12T08:10:19.565Z,3464
2017-01-12T08:11:30.307Z,2944
2017-01-12T08:12:41.049Z,2552
2017-01-12T08:13:51.770Z,2664
2017-01-12T08:15:02.494Z,2848
2017-01-12T08:16:13.215Z,2964
2017-01-12T08:17:23.966Z,2952
2017-01-12T08:18:34.704Z,2864
2017-01-12T08:19:45.424Z,2740
2017-01-12T08:20:56.150Z,2332
2017-01-12T08:22:06.888Z,2100
2017-01-12T08:23:17.616Z,2128
2017-01-12T08:24:28.334Z,2132
2017-01-12T08:25:39.058Z,2256
2017-01-12T08:26:49.819Z,1788
2017-01-12T08:28:00.950Z,1724
2017-01-12T08:29:11.671Z,1704
2017-01-12T08:30:22.417Z,1880
2017-01-12T08:31:33.161Z,2020
2017-01-12T08:32:43.907Z,2260
2017-01-12T08:33:54.638Z,2120
2017-01-12T08:35:05.769Z,1860
2017-01-12T08:36:16.524Z,1964
2017-01-12T08:37:27.263Z,2076
2017-01-12T08:38:37.966Z,2044
2017-01-12T08:39:48.711Z,1712
2017-01-12T08:40:59.434Z,1520
2017-01-12T08:42:10.577Z,1396
2017-01-12T08:43:21.321Z,1316
2017-01-12T08:44:32.039Z,1332
2017-01-12T08:45:42.764Z,1736
2017-01-12T08:46:53.485Z,1620
2017-01-12T08:48:04.206Z,1836
2017-01-12T08:49:14.958Z,2640
2017-01-12T08:50:25.676Z,2200
2017-01-12T08:51:36.402Z,2540
2017-01-12T08:52:47.165Z,2360
2017-01-12T08:53:57.889Z,1564
2017-01-12T08:55:08.628Z,1772
2017-01-12T08:56:19.403Z,1644
2017-01-12T08:57:30.128Z,1684
2017-01-12T08:58:40.888Z,1404
2017-01-12T08:59:51.620Z,1520
2017-01-12T09:01:02.367Z,1672
2017-01-12T09:02:13.110Z,2044
2017-01-12T09:03:23.831Z,2100
2017-01-12T09:04:34.556Z,2364
2017-01-12T09:05:45.276Z,2432
2017-01-12T09:06:55.999Z,2180
2017-01-12T09:08:06.744Z,1992
2017-01-12T09:09:17.477Z,2436
2017-01-12T09:10:28.185Z,2168
2017-01-12T09:11:38.954Z,2548
2017-01-12T09:12:50.073Z,2844
2017-01-12T09:14:00.822Z,2676
2017-01-12T09:15:11.940Z,2152
2017-01-12T09:16:22.662Z,2672
2017-01-12T09:17:33.363Z,1956
2017-01-12T09:18:44.108Z,1816
2017-01-12T09:19:54.842Z,2648
2017-01-12T09:21:05.605Z,1556
2017-01-12T09:22:16.334Z,1368
2017-01-12T09:23:27.092Z,1404
2017-01-12T09:24:37.838Z,2072
2017-01-12T09:25:48.550Z,2212
2017-01-12T09:26:59.276Z,2252
2017-01-12T09:28:10.025Z,2232
2017-01-12T09:29:20.769Z,2720
2017-01-12T09:30:31.494Z,3844
2017-01-12T09:31:42.214Z,4452
2017-01-12T09:32:52.963Z,2968
2017-01-12T09:34:03.702Z,2504
2017-01-12T09:35:14.427Z,2624
2017-01-12T09:36:25.146Z,2712
2017-01-12T09:37:35.869Z,2296
2017-01-12T09:38:46.596Z,2024
2017-01-12T09:39:57.333Z,1980
2017-01-12T09:41:08.099Z,2500
2017-01-12T09:43:44.473Z,3320
2017-01-12T09:44:55.192Z,4052
2017-01-12T09:46:05.916Z,4336
2017-01-12T09:47:16.662Z,2768
2017-01-12T09:48:27.407Z,2388
2017-01-12T09:49:38.150Z,3512
2017-01-12T09:50:48.867Z,5048
2017-01-12T09:51:59.600Z,5340
2017-01-12T09:53:10.317Z,5416
2017-01-12T09:54:21.087Z,4064
2017-01-12T09:55:31.855Z,4120
2017-01-12T09:56:42.594Z,4348
2017-01-12T09:57:53.324Z,4452
2017-01-12T09:59:04.047Z,4028
2017-01-12T10:00:14.781Z,4184
2017-01-12T10:01:25.553Z,2380
2017-01-12T10:02:36.312Z,2828
2017-01-12T10:03:47.028Z,1892
2017-01-12T10:04:57.757Z,1652
2017-01-12T10:06:08.498Z,1988
2017-01-12T10:07:19.240Z,2688
2017-01-12T10:08:29.983Z,2744
2017-01-12T10:09:40.732Z,1620
2017-01-12T10:10:51.461Z,1896
2017-01-12T10:12:02.217Z,2784
2017-01-12T10:13:12.967Z,1596
2017-01-12T10:14:23.699Z,2232
2017-01-12T10:15:34.462Z,2592
2017-01-12T10:16:45.213Z,3720
2017-01-12T10:17:55.951Z,3672
2017-01-12T10:19:06.651Z,2400
2017-01-12T10:20:17.400Z,2940
2017-01-12T10:21:28.168Z,3004
2017-01-12T10:22:38.889Z,2976
2017-01-12T10:23:49.602Z,3448
2017-01-12T10:25:00.313Z,4820
2017-01-12T10:26:11.048Z,5040
2017-01-12T10:27:21.776Z,3480
2017-01-12T10:28:32.901Z,2592
2017-01-12T10:29:43.641Z,3688
2017-01-12T10:30:54.342Z,3148
2017-01-12T10:32:05.075Z,3472
2017-01-12T10:33:16.170Z,5072
2017-01-12T10:34:26.879Z,6488
2017-01-12T10:35:37.624Z,6664
2017-01-12T10:36:48.358Z,6164
2017-01-12T10:37:59.115Z,6468
2017-01-12T10:39:09.879Z,6804
2017-01-12T10:40:20.609Z,7760
2017-01-12T10:41:31.345Z,9384
2017-01-12T10:42:42.072Z,9096
2017-01-12T10:43:52.792Z,7744
2017-01-12T10:45:03.540Z,7516
2017-01-12T10:46:14.275Z,7104
2017-01-12T10:47:25.004Z,7468
2017-01-12T10:48:35.733Z,8440
2017-01-12T10:49:46.451Z,8904
2017-01-12T10:50:57.192Z,10052
2017-01-12T10:52:07.913Z,9908
2017-01-12T10:53:18.637Z,9000
2017-01-12T10:54:29.385Z,7988
2017-01-12T10:55:40.143Z,7376
2017-01-12T10:56:51.248Z,6044
2017-01-12T10:58:01.971Z,5612
2017-01-12T10:59:12.710Z,6152
2017-01-12T11:00:23.441Z,7240
2017-01-12T11:01:34.186Z,7844
2017-01-12T11:02:44.920Z,7964
2017-01-12T11:03:55.650Z,8408
2017-01-12T11:05:06.368Z,9148
2017-01-12T11:06:17.092Z,9472
2017-01-12T11:07:27.831Z,9688
2017-01-12T11:08:38.558Z,8676
2017-01-12T11:09:49.302Z,8144
2017-01-12T11:11:00.025Z,8472
2017-01-12T11:12:10.752Z,8872
2017-01-12T11:13:21.496Z,9048
2017-01-12T11:14:32.237Z,8380
2017-01-12T11:15:42.980Z,7548
2017-01-12T11:16:53.730Z,8276
2017-01-12T11:18:04.472Z,9092
2017-01-12T11:19:15.197Z,9160
2017-01-12T11:20:25.938Z,8644
2017-01-12T11:21:36.652Z,8980
2017-01-12T11:22:47.379Z,9732
2017-01-12T11:23:58.117Z,10032
2017-01-12T11:25:08.851Z,8900
2017-01-12T11:26:19.570Z,7964
2017-01-12T11:27:30.316Z,7836
2017-01-12T11:28:41.012Z,9264
2017-01-12T11:29:51.750Z,9964
2017-01-12T11:31:02.450Z,9976
2017-01-12T11:32:13.189Z,9244
2017-01-12T11:33:23.913Z,9292
2017-01-12T11:34:34.668Z,9076
2017-01-12T11:35:45.411Z,8956
2017-01-12T11:36:56.172Z,8144
2017-01-12T11:38:06.903Z,7884
2017-01-12T11:39:17.649Z,7732
2017-01-12T11:40:28.392Z,7172
2017-01-12T11:41:39.112Z,6944
2017-01-12T11:42:49.854Z,7276
2017-01-12T11:44:00.584Z,6492
2017-01-12T11:45:11.327Z,6312
2017-01-12T11:46:22.050Z,7564
2017-01-12T11:47:32.812Z,8008
2017-01-12T11:48:43.537Z,7428
2017-01-12T11:49:54.263Z,7564
2017-01-12T11:51:05.026Z,7272
2017-01-12T11:52:15.754Z,6800
2017-01-12T11:53:26.475Z,5904
2017-01-12T11:54:37.216Z,5308
2017-01-12T11:55:47.938Z,5924
2017-01-12T11:56:58.686Z,6088
2017-01-12T11:58:09.432Z,5400
2017-01-12T11:59:20.158Z,4836
2017-01-12T12:00:30.875Z,4860
2017-01-12T12:01:41.615Z,4820
2017-01-12T12:02:52.337Z,5484
2017-01-12T12:04:03.106Z,5896
2017-01-12T12:05:13.830Z,6468
2017-01-12T12:06:24.573Z,7000
2017-01-12T12:07:35.698Z,6992
2017-01-12T12:08:46.440Z,6948
2017-01-12T12:09:57.160Z,6500
2017-01-12T12:11:07.910Z,6240
2017-01-12T12:12:18.673Z,6420
2017-01-12T12:13:29.398Z,6280
2017-01-12T12:14:40.121Z,6680
2017-01-12T12:15:50.864Z,6772
2017-01-12T12:17:01.590Z,6600
2017-01-12T12:18:12.341Z,6664
2017-01-12T12:19:23.096Z,6996
2017-01-12T12:20:33.852Z,7544
2017-01-12T12:21:44.598Z,7744
2017-01-12T12:22:55.315Z,7624
2017-01-12T12:24:06.039Z,7456
2017-01-12T12:25:16.781Z,7004
2017-01-12T12:26:27.507Z,6896
2017-01-12T12:27:38.254Z,6660
2017-01-12T12:28:49.020Z,6696
2017-01-12T12:29:59.759Z,6864
2017-01-12T12:31:10.489Z,6964
2017-01-12T12:32:21.228Z,7184
2017-01-12T12:33:31.988Z,7292
2017-01-12T12:34:42.704Z,6912
2017-01-12T12:35:53.421Z,6484
2017-01-12T12:37:04.141Z,6484
2017-01-12T12:38:14.888Z,6324
2017-01-12T12:39:25.609Z,6348
2017-01-12T12:40:36.333Z,6492
2017-01-12T12:41:47.079Z,6888
2017-01-12T12:42:57.825Z,6812
2017-01-12T12:44:08.577Z,6528
2017-01-12T12:45:19.314Z,6460
2017-01-12T12:46:30.455Z,6264
2017-01-12T12:47:41.181Z,6532
2017-01-12T12:48:51.907Z,6676
2017-01-12T12:50:02.669Z,6616
2017-01-12T12:51:13.423Z,5868
2017-01-12T12:52:24.167Z,5356
2017-01-12T12:53:34.928Z,4844
2017-01-12T12:54:45.660Z,5488
2017-01-12T12:55:56.370Z,6044
2017-01-12T12:57:07.120Z,4960
2017-01-12T12:58:17.862Z,4180
2017-01-12T12:59:28.594Z,3136
2017-01-12T13:00:39.342Z,4136
2017-01-12T13:01:50.083Z,4164
2017-01-12T13:03:00.804Z,2928
2017-01-12T13:04:11.530Z,2488
2017-01-12T13:05:22.251Z,3032
2017-01-12T13:06:32.985Z,4080
2017-01-12T13:07:43.717Z,4212
2017-01-12T13:08:54.460Z,4900
2017-01-12T13:10:05.184Z,5260
2017-01-12T13:11:15.908Z,4652
2017-01-12T13:12:26.666Z,4640
2017-01-12T13:13:37.398Z,4692
2017-01-12T13:14:48.141Z,4836
2017-01-12T13:15:58.882Z,5232
2017-01-12T13:17:09.590Z,5364
2017-01-12T13:18:20.332Z,5236
2017-01-12T13:19:31.057Z,4916
2017-01-12T13:20:41.796Z,4372
2017-01-12T13:21:52.534Z,4496
2017-01-12T13:23:03.239Z,4536
2017-01-12T13:24:13.964Z,4420
2017-01-12T13:25:24.684Z,4340
2017-01-12T13:26:35.426Z,4528
2017-01-12T13:27:46.127Z,4456
2017-01-12T13:28:56.861Z,4628
2017-01-12T13:30:07.590Z,4764
2017-01-12T13:31:18.316Z,4932
2017-01-12T13:32:29.056Z,4724
2017-01-12T13:33:39.798Z,3992
2017-01-12T13:34:50.530Z,4084
2017-01-12T13:36:01.245Z,4168
2017-01-12T13:37:11.970Z,4000
2017-01-12T13:38:22.712Z,3944
2017-01-12T13:39:33.451Z,3480
2017-01-12T13:40:44.179Z,3516
2017-01-12T13:41:54.900Z,4052
2017-01-12T13:43:05.642Z,4344
2017-01-12T13:44:16.392Z,4752
2017-01-12T13:45:27.114Z,4596
2017-01-12T13:46:37.838Z,4384
2017-01-12T13:47:48.601Z,4340
2017-01-12T13:48:59.381Z,3748
2017-01-12T13:50:10.539Z,3276
2017-01-12T13:51:21.289Z,3208
2017-01-12T13:52:32.018Z,3208
2017-01-12T13:53:42.768Z,2920
2017-01-12T13:54:53.514Z,2808
2017-01-12T13:56:04.277Z,2744
2017-01-12T13:57:14.977Z,2632
2017-01-12T13:58:25.723Z,2660
2017-01-12T13:59:36.465Z,2632
2017-01-12T14:00:47.195Z,2540
2017-01-12T14:01:57.952Z,2464
2017-01-12T14:03:08.681Z,2404
2017-01-12T14:04:19.453Z,2376
2017-01-12T14:05:30.175Z,2364
2017-01-12T14:06:40.891Z,2236
2017-01-12T14:07:51.591Z,2164
2017-01-12T14:09:02.308Z,2160
2017-01-12T14:10:13.050Z,2180
2017-01-12T14:11:23.776Z,2232
2017-01-12T14:12:34.497Z,2272
2017-01-12T14:13:45.220Z,2348
2017-01-12T14:14:55.945Z,2236
2017-01-12T14:16:06.685Z,1968
2017-01-12T14:17:17.405Z,2008
2017-01-12T14:18:28.123Z,2052
2017-01-12T14:19:38.824Z,2016
2017-01-12T14:20:49.552Z,2040
2017-01-12T14:22:00.296Z,1996
2017-01-12T14:23:11.045Z,1908
2017-01-12T14:24:21.788Z,1940
2017-01-12T14:25:32.529Z,1936
2017-01-12T14:26:43.255Z,1864
2017-01-12T14:27:53.971Z,1764
2017-01-12T14:29:04.704Z,1680
2017-01-12T14:30:15.469Z,1576
2017-01-12T14:31:26.228Z,1460
2017-01-12T14:32:36.974Z,1324
2017-01-12T14:33:47.706Z,1196
2017-01-12T14:34:58.465Z,1116
2017-01-12T14:36:09.203Z,908
2017-01-12T14:37:19.969Z,776
2017-01-12T14:38:30.718Z,780
2017-01-12T14:39:41.462Z,768
2017-01-12T14:40:52.204Z,720
2017-01-12T14:42:02.951Z,660
2017-01-12T14:43:13.671Z,700
2017-01-12T14:44:24.392Z,788
2017-01-12T14:45:35.157Z,796
2017-01-12T14:46:45.885Z,764
2017-01-12T14:47:56.606Z,748
2017-01-12T14:49:07.328Z,724
2017-01-12T14:50:18.058Z,712
2017-01-12T14:51:28.801Z,704
2017-01-12T14:52:39.516Z,712
2017-01-12T14:53:50.212Z,720
2017-01-12T14:55:00.955Z,704
2017-01-12T14:56:11.684Z,668
2017-01-12T14:57:22.446Z,636
2017-01-12T14:58:33.175Z,588
2017-01-12T14:59:43.946Z,520
2017-01-12T15:00:54.689Z,460
2017-01-12T15:02:05.419Z,388
2017-01-12T15:03:16.158Z,300
2017-01-12T15:04:27.278Z,208
2017-01-12T15:05:38.003Z,188
2017-01-12T15:06:48.723Z,208
2017-01-12T15:07:59.837Z,216
2017-01-12T15:09:10.540Z,232
2017-01-12T15:10:21.261Z,256
2017-01-12T15:11:32.383Z,236
2017-01-12T15:12:43.143Z,180
2017-01-12T15:13:53.847Z,164
2017-01-12T15:16:15.117Z,176
2017-01-12T15:17:25.835Z,172
2017-01-12T15:19:47.131Z,140
2017-01-12T15:20:57.873Z,144
2017-01-12T15:22:08.597Z,128
2017-01-12T15:23:19.340Z,120
2017-01-12T15:24:30.066Z,112
2017-01-12T15:25:40.825Z,104
2017-01-12T15:26:51.579Z,96
2017-01-12T15:28:02.300Z,92
2017-01-12T15:29:13.050Z,84
2017-01-12T15:30:23.796Z,76
2017-01-12T15:31:34.556Z,68
2017-01-12T15:32:45.288Z,60
2017-01-12T15:33:56.006Z,52
2017-01-12T15:35:06.731Z,44
2017-01-12T15:36:17.516Z,40
2017-01-12T15:37:28.247Z,32
2017-01-12T15:38:38.989Z,28
2017-01-12T15:39:49.691Z,24
2017-01-12T15:41:00.407Z,16
2017-01-12T15:42:11.132Z,16
2017-01-12T15:43:21.852Z,12
2017-01-12T15:44:32.570Z,12
2017-01-12T15:45:43.292Z,8
2017-01-12T15:46:54.016Z,4
2017-01-12T15:48:04.738Z,4
2017-01-12T15:49:15.472Z,8
2017-01-12T15:50:26.204Z,4
2017-01-12T15:51:36.946Z,4
2017-01-12T15:52:47.645Z,0
2017-01-12T15:53:58.364Z,4
2017-01-12T15:55:09.078Z,4
2017-01-12T15:56:19.781Z,0
2017-01-12T15:57:30.508Z,0
2017-01-12T15:58:41.254Z,0
2017-01-12T15:59:51.987Z,0
2017-01-12T16:01:02.707Z,0
2017-01-12T16:02:13.437Z,0
2017-01-12T16:03:24.132Z,0
2017-01-12T16:04:34.879Z,0
2017-01-12T16:05:45.602Z,0
2017-01-12T16:06:56.324Z,0
2017-01-12T16:08:07.051Z,0
2017-01-12T16:09:17.795Z,0
2017-01-12T16:10:28.528Z,0
2017-01-12T16:11:39.261Z,0
2017-01-12T16:12:49.980Z,0
2017-01-12T16:14:00.722Z,0
2017-01-12T16:15:11.443Z,0
2017-01-12T16:16:22.164Z,0
2017-01-12T16:17:32.887Z,0
2017-01-12T16:18:43.615Z,0
2017-01-12T16:19:54.373Z,0
2017-01-12T16:21:05.080Z,0
2017-01-12T16:22:15.826Z,0
2017-01-12T16:23:26.544Z,0
2017-01-12T16:24:37.265Z,0
2017-01-12T16:25:48.012Z,0
2017-01-12T16:26:58.746Z,0
2017-01-12T16:28:09.475Z,0
2017-01-12T16:29:20.174Z,0
2017-01-12T16:30:30.917Z,0
2017-01-12T16:31:41.670Z,0
2017-01-12T16:32:52.412Z,0
2017-01-12T16:34:03.151Z,0
2017-01-12T16:35:13.869Z,0
2017-01-12T16:36:24.578Z,0